Tiempo atmosférico en la estación meteorológica de Cortes De La Frontera, Málaga (315 m.)



Fecha
DESCASC
Temp. máxima en grados centígrados (hora)
DESCASC
Temp. mínima en grados centígrados (hora)
DESCASC
Temp. media en grados centígrados
DESCASC
Racha de viento máxima en m/sg (hora)
DESCASC
Velocidad máxima media en intervalos de 10 minutos(hora)
DESCASC
Precipitaciones diarias en mm
DESCASC
Precipitaciones de 00:00 a 06:00 en mm
DESCASC
Precipitaciones de 06:00 a 12:00 en mm
DESCASC
Precipitaciones de 12:00 a 18:00 en mm
DESCASC
Precipitaciones de 18:00 a 24:00 en mm
DESCASC
29-03-2020 18.3 (14:30) 5.8 (08:10) 12 5.28 (16:30) 1.94 (13:40) 0 0 0 0 0
28-03-2020 17.9 (12:50) 6.3 (07:20) 12.1 7.5 (13:40) 2.22 (13:50) 0 0 0 0 0
27-03-2020 17.2 (15:10) 6.5 (07:50) 11.9 5.28 (15:20) 1.67 (14:50) 0 0 0 0 0
26-03-2020 19.9 (14:40) 6.3 (00:00) 13.1 6.67 (10:30) 2.22 (10:10) 0 0 0 0 0
25-03-2020 13.4 (16:50) 6.8 (00:00) 10.1 2.78 (14:40) 1.11 (14:30) 6.8 3.8 3 0 0
24-03-2020 13.8 (12:40) 9.9 (00:00) 11.8 4.44 (01:40) 1.67 (12:00) 6 0 4.6 0.8 0.6
23-03-2020 15.3 (11:40) 5.1 (00:00) 10.2 3.33 (16:30) 1.11 (11:10) 0.6 0 0 0.4 0.2
22-03-2020 13.9 (11:40) 6.3 (07:50) 10.1 3.89 (11:30) 1.39 (11:20) 5.6 3 0 1 1.6
21-03-2020 14.6 (12:00) 7.3 (00:00) 11 7.5 (00:50) 2.5 (00:40) 31 12 0.2 17.8 1
20-03-2020 15.3 (16:40) 11.4 (00:00) 13.3 6.39 (23:50) 2.5 (13:00) 3.8 0 0 0 3.8
19-03-2020 17.2 (12:20) 12.8 (00:00) 15 6.94 (11:50) 1.94 (13:50) 0 0 0 0 0
18-03-2020 18.1 (13:00) 13.4 (00:00) 15.8 13.61 (09:00) 5.56 (08:20) 0.4 0.4 0 0 0
17-03-2020 15.4 (13:30) 7 (00:00) 11.2 10.56 (16:40) 3.06 (16:20) 2.6 0 2.4 0 0.2
16-03-2020 15.3 (15:30) 8.3 (00:00) 11.8 8.33 (16:00) 2.5 (15:20) 0 0 0 0 0
15-03-2020 18.5 (14:10) 9.4 (00:00) 13.9 4.44 (14:40) 1.67 (14:20) 0 0 0 0 0
14-03-2020 19.5 (14:30) 9.7 (00:00) 14.6 6.11 (15:00) 2.22 (14:30) 0 0 0 0 0
13-03-2020 24.4 (15:00) 9.4 (08:00) 16.9 6.11 (16:50) 2.5 (16:50) 0 0 0 0 0
12-03-2020 24.5 (15:10) 11 (00:00) 17.8 4.72 (12:50) 1.94 (12:50) 0 0 0 0 0
11-03-2020 23.4 (14:20) 8 (00:00) 15.7 3.33 (16:00) 1.39 (11:00) 0 0 0 0 0
10-03-2020 25.1 (13:50) 10.1 (00:00) 17.6 6.11 (05:20) 1.94 (05:20) 0 0 0 0 0
09-03-2020 24.4 (15:10) 10.6 (00:00) 17.5 6.11 (14:50) 2.22 (14:50) 0 0 0 0 0
08-03-2020 22.1 (14:50) 4.6 (00:00) 13.4 5 (15:10) 1.67 (13:50) 0 0 0 0 0
07-03-2020 20.4 (14:10) 7.1 (00:00) 13.7 6.94 (05:00) 1.94 (09:20) 0 0 0 0 0
06-03-2020 16.5 (14:30) 8.3 (00:00) 12.4 8.89 (11:10) 2.5 (14:00) 0 0 0 0 0
05-03-2020 17.1 (09:50) 9.8 (00:00) 13.5 8.33 (14:30) 2.22 (09:30) 0 0 0 0 0
04-03-2020 20.4 (14:10) 11.5 (00:00) 15.9 7.5 (12:30) 2.5 (13:10) 0 0 0 0 0
03-03-2020 17.6 (15:20) 7.3 (00:00) 12.5 7.5 (10:10) 2.22 (10:10) 0 0 0 0 0
02-03-2020 19.4 (13:30) 10 (00:00) 14.7 5.28 (08:00) 1.67 (14:40) 3.6 0 3.4 0.2 0
01-03-2020 18.6 (14:30) 9.6 (00:00) 14.1 5 (14:40) 1.39 (12:20) 2.6 2.6 0 0 0
29-02-2020 19.6 (13:40) 6.5 (00:00) 13.1 6.67 (12:40) 2.22 (12:40) 0.2 0 0 0 0.2

Gráficas

Temp. máximas Temp. mínimas Temp. medias Precipitaciones Rachas de viento máximas Velocidades máximas media en intervalos de 10 minutos

Datos horarios

Fecha y hora oficial Temperatura (ºC) Velocidad del viento (km/h) Dirección del viento Racha (km/h) Dirección de racha Precipitación (mm) Presión (hPa) Tendencia (hPa) Humedad (%)
2020-03-29 23:00:00 12 0 Calma 2 Norte 0 -- -- 83
2020-03-29 22:00:00 12.4 2 Norte 3 Norte 0 -- -- 81
2020-03-29 21:00:00 13.3 0 Calma 3 Noroeste 0 -- -- 76
2020-03-29 20:00:00 15 3 Sudoeste 8 Sudoeste 0 -- -- 67
2020-03-29 19:00:00 16.2 3 Sudeste 10 Sudeste 0 -- -- 63
2020-03-29 18:00:00 16.9 2 Sudeste 15 Sur 0 -- -- 61
2020-03-29 17:00:00 17.6 4 Sur 19 Sur 0 -- -- 59
2020-03-29 16:00:00 17.4 6 Sur 15 Sudeste 0 -- -- 60
2020-03-29 15:00:00 18.2 6 Sur 18 Sur 0 -- -- 53
2020-03-29 14:00:00 17.6 5 Sudeste 16 Sudoeste 0 -- -- 59
2020-03-29 13:00:00 16.9 6 Sudeste 15 Sur 0 -- -- 67
2020-03-29 12:00:00 15.7 4 Sudeste 11 Sur 0 -- -- 67
2020-03-29 11:00:00 13.6 3 Sur 7 Sur 0 -- -- 71
2020-03-29 10:00:00 8.8 2 Sur 4 Sur 0 -- -- 96
2020-03-29 09:00:00 6 0 Calma 2 Norte 0 -- -- 97
2020-03-29 08:00:00 5.9 0 Calma 2 Norte 0 -- -- 96
2020-03-29 07:00:00 6.3 0 Calma 2 Norte 0 -- -- 95
2020-03-29 06:00:00 6.7 0 Calma 3 Norte 0 -- -- 95
2020-03-29 05:00:00 7.1 0 Calma 4 Sur 0 -- -- 95
2020-03-29 03:00:00 7.6 2 Norte 4 Noroeste 0 -- -- 93
2020-03-29 01:00:00 8.1 0 Calma 4 Norte 0 -- -- 93
2020-03-29 00:00:00 8.7 2 Norte 3 Noroeste 0 -- -- 91
2020-03-28 23:00:00 9.8 2 Norte 3 Norte 0 -- -- 89
2020-03-28 22:00:00 11.3 0 Calma 3 Nordeste 0 -- -- 87
2020-03-28 21:00:00 11.8 0 Calma 6 Sur 0 -- -- 85
2020-03-28 20:00:00 12.3 0 Calma 6 Norte 0 -- -- 81
2020-03-28 19:00:00 12.9 2 Nordeste 12 Sudeste 0 -- -- 76
2020-03-28 18:00:00 13.7 0 Calma 8 Sur 0 -- -- 79
2020-03-28 17:00:00 13.4 2 Sur 11 Sudeste 0 -- -- 80
2020-03-28 16:00:00 13.6 3 Sur 17 Este 0 -- -- 79
2020-03-28 15:00:00 15 6 Sur 20 Sur 0 -- -- 75
2020-03-28 14:00:00 16.4 6 Sur 27 Sudoeste 0 -- -- 69
2020-03-28 13:00:00 17.9 8 Sur 18 Sudeste 0 -- -- 63
2020-03-28 12:00:00 16.1 5 Sur 19 Sudoeste 0 -- -- 69
2020-03-28 11:00:00 14.6 4 Sur 10 Sur 0 -- -- 73
2020-03-28 10:00:00 12.3 0 Calma 4 Sur 0 -- -- 85
2020-03-28 09:00:00 8.9 2 Sudoeste 4 Sur 0 -- -- 96
2020-03-28 08:00:00 6.7 0 Calma 2 Norte 0 -- -- 97
2020-03-28 07:00:00 6.5 0 Calma 2 Norte 0 -- -- 96
2020-03-28 06:00:00 6.8 0 Calma 2 Norte 0 -- -- 97
2020-03-28 05:00:00 6.7 0 Calma 3 Norte 0 -- -- 95
2020-03-28 04:00:00 7.4 0 Calma 3 Norte 0 -- -- 95
2020-03-28 03:00:00 8 0 Calma 3 Noroeste 0 -- -- 95
2020-03-28 02:00:00 8 0 Calma 3 Noroeste 0 -- -- 95
2020-03-28 01:00:00 7.6 0 Calma 3 Norte 0 -- -- 94
2020-03-28 00:00:00 7.8 0 Calma 2 Noroeste 0 -- -- 93
2020-03-27 23:00:00 8.5 2 Norte 3 Norte 0 -- -- 91
2020-03-27 22:00:00 9.4 0 Calma 4 Norte 0 -- -- 89
2020-03-27 21:00:00 9.9 2 Norte 4 Noroeste 0 -- -- 85
2020-03-27 20:00:00 11.2 2 Norte 4 Norte 0 -- -- 79
2020-03-27 19:00:00 13.4 0 Calma 9 Sudeste 0 -- -- 72
2020-03-27 18:00:00 15.4 2 Sur 18 Sur 0 -- -- 63
2020-03-27 17:00:00 15.9 4 Sur 17 Sudoeste 0 -- -- 64
2020-03-27 16:00:00 17 4 Sudeste 19 Sudoeste 0 -- -- 55
2020-03-27 15:00:00 16.7 4 Sudeste 18 Sudeste 0 -- -- 58
2020-03-27 14:00:00 15.2 4 Sur 13 Sur 0 -- -- 63
2020-03-27 13:00:00 14.6 4 Sur 16 Sudoeste 0 -- -- 66
2020-03-27 12:00:00 13.5 3 Sudeste 14 Sudoeste 0 -- -- 78
2020-03-27 11:00:00 14.6 4 Sur 12 Sur 0 -- -- 72
2020-03-27 10:00:00 13.2 4 Sur 8 Sur 0 -- -- 76
2020-03-27 09:00:00 8.9 2 Sudeste 5 Sur 0 -- -- 96
2020-03-27 08:00:00 6.6 0 Calma 2 Norte 0 -- -- 97
2020-03-27 07:00:00 6.8 0 Calma 4 Norte 0 -- -- 96
2020-03-27 06:00:00 7.1 0 Calma 4 Noroeste 0 -- -- 95
2020-03-27 05:00:00 7.8 0 Calma 3 Norte 0 -- -- 94
2020-03-27 04:00:00 8.6 0 Calma 3 Noroeste 0 -- -- 94
2020-03-27 03:00:00 9.2 0 Calma 4 Norte 0 -- -- 94
2020-03-27 02:00:00 9.6 2 Norte 4 Norte 0 -- -- 92
2020-03-27 01:00:00 10.1 0 Calma 4 Norte 0 -- -- 92
2020-03-27 00:00:00 10 2 Norte 5 Norte 0 -- -- 91
2020-03-26 23:00:00 9.9 3 Noroeste 4 Norte 0 -- -- 88
2020-03-26 22:00:00 10.5 4 Norte 5 Norte 0 -- -- 85
2020-03-26 21:00:00 11.4 3 Norte 6 Norte 0 -- -- 83
2020-03-26 20:00:00 13 2 Norte 4 Noroeste 0 -- -- 79
2020-03-26 19:00:00 15.3 0 Calma 15 Norte 0 -- -- 67
2020-03-26 18:00:00 16.6 3 Noroeste 14 Sudoeste 0 -- -- 57
2020-03-26 17:00:00 17.8 6 Sur 21 Norte 0 -- -- 50
2020-03-26 16:00:00 19.3 4 Nordeste 18 Sudoeste 0 -- -- 48
2020-03-26 15:00:00 19.9 7 Sur 21 Oeste 0 -- -- 48
2020-03-26 14:00:00 19.7 4 Este 18 Sudoeste 0 -- -- 53
2020-03-26 13:00:00 18.9 5 Sudoeste 15 Oeste 0 -- -- 59
2020-03-26 12:00:00 18.1 4 Este 19 Norte 0 -- -- 63
2020-03-26 11:00:00 17 5 Norte 24 Nordeste 0 -- -- 71
2020-03-26 10:00:00 14.7 5 Norte 17 Nordeste 0 -- -- 78
2020-03-26 09:00:00 11.1 3 Este 18 Nordeste 0 -- -- 95
2020-03-26 08:00:00 7.6 0 Calma 7 Nordeste 0 -- -- 99
2020-03-26 07:00:00 6.9 0 Calma 3 Noroeste 0 -- -- 98
2020-03-26 06:00:00 6.9 0 Calma 2 Noroeste 0 -- -- 98
2020-03-26 05:00:00 6.6 0 Calma 3 Norte 0 -- -- 98
2020-03-26 04:00:00 6.9 0 Calma 3 Norte 0 -- -- 98
2020-03-26 03:00:00 6.6 0 Calma 3 Norte 0 -- -- 97
2020-03-26 02:00:00 6.5 0 Calma 2 Norte 0 -- -- 97
2020-03-26 01:00:00 6.5 0 Calma 2 Norte 0 -- -- 96
2020-03-26 00:00:00 6.8 0 Calma 2 Norte 0 -- -- 96
2020-03-25 23:00:00 7.2 2 Norte 3 Noroeste 0 -- -- 95
2020-03-25 22:00:00 7.8 2 Noroeste 3 Norte 0 -- -- 93
2020-03-25 21:00:00 8.7 2 Noroeste 3 Noroeste 0 -- -- 91
2020-03-25 20:00:00 10.1 2 Norte 5 Sur 0 -- -- 88
2020-03-25 19:00:00 12.3 0 Calma 10 Sudeste 0 -- -- 83
2020-03-25 18:00:00 13.1 2 Sur 9 Sudeste 0 -- -- 74
2020-03-25 17:00:00 13.4 3 Sur 8 Sur 0 -- -- 75
2020-03-25 16:00:00 12.9 0 Calma 5 Este 0 -- -- 80
2020-03-25 15:00:00 12.6 0 Calma 10 Sur 0 -- -- 80
2020-03-25 14:00:00 13 3 Sur 8 Sur 0 -- -- 82
2020-03-25 13:00:00 12.4 0 Calma 6 Sudoeste 0 -- -- 88
2020-03-25 12:00:00 11.9 0 Calma 3 Oeste 0 -- -- 91
2020-03-25 11:00:00 11.2 0 Calma 2 Noroeste 0 -- -- 94
2020-03-25 10:00:00 10.4 0 Calma 4 Nordeste 0.4 -- -- 96
2020-03-25 09:00:00 10.9 0 Calma 4 Oeste 1.6 -- -- 97
2020-03-25 08:00:00 10.9 0 Calma 8 Sur 0.6 -- -- 97
2020-03-25 07:00:00 11.2 0 Calma 7 Sudoeste 0.4 -- -- 98
2020-03-25 06:00:00 11.4 0 Calma 6 Noroeste 3.6 -- -- 97
2020-03-25 05:00:00 11.6 0 Calma 8 Oeste 0 -- -- 97
2020-03-25 04:00:00 11.6 0 Calma 3 Norte 0 -- -- 97
2020-03-25 03:00:00 11.7 0 Calma 2 Noroeste 0 -- -- 97
2020-03-25 02:00:00 11.8 0 Calma 2 Norte 0.2 -- -- 97
2020-03-25 01:00:00 11.9 0 Calma 3 Oeste 0 -- -- 97
2020-03-25 00:00:00 11.8 0 Calma 2 Norte 0 -- -- 97
2020-03-24 23:00:00 11.8 0 Calma 2 Noroeste 0 -- -- 97
2020-03-24 22:00:00 11.7 2 Norte 2 Norte 0 -- -- 96
2020-03-24 21:00:00 12 0 Calma 4 Norte 0.6 -- -- 95
2020-03-24 20:00:00 12.7 0 Calma 2 Noroeste 0 -- -- 95
2020-03-24 19:00:00 13.4 0 Calma 5 Sur 0 -- -- 94
2020-03-24 18:00:00 13.4 0 Calma 6 Sudoeste 0 -- -- 94
2020-03-24 17:00:00 13.6 0 Calma 8 Sur 0 -- -- 95
2020-03-24 16:00:00 13.5 2 Sur 3 Este 0.8 -- -- 93
2020-03-24 15:00:00 13.6 0 Calma 8 Sur 0 -- -- 90
2020-03-24 14:00:00 13.4 2 Este 13 Sudeste 0 -- -- 89
2020-03-24 13:00:00 13.7 4 Sudeste 10 Sudeste 0 -- -- 79
2020-03-24 12:00:00 13 6 Sudeste 11 Este 0.2 -- -- 83
2020-03-24 11:00:00 11.6 0 Calma 12 Norte 0.4 -- -- 96
2020-03-24 10:00:00 10.7 0 Calma 10 Sudeste 0 -- -- 97
2020-03-24 09:00:00 10 0 Calma 4 Sur 1.2 -- -- 95
2020-03-24 08:00:00 10 0 Calma 5 Sudoeste 2.4 -- -- 94
2020-03-24 07:00:00 10.6 2 Norte 10 Sudeste 0.4 -- -- 89
2020-03-24 06:00:00 10.7 3 Sudeste 10 Sudeste 0 -- -- 81
2020-03-24 05:00:00 11.1 2 Este 11 Sudeste 0 -- -- 79
2020-03-24 04:00:00 11.1 2 Sudeste 14 Nordeste 0 -- -- 78
2020-03-24 03:00:00 10.9 4 Sudeste 10 Este 0 -- -- 80
2020-03-24 02:00:00 10.7 4 Norte 16 Nordeste 0 -- -- 83
2020-03-24 01:00:00 10.8 0 Calma 6 Sudeste 0 -- -- 88
2020-03-24 00:00:00 10.9 2 Norte 8 Norte 0 -- -- 87
2020-03-23 23:00:00 10 2 Norte 4 Noroeste 0 -- -- 91
2020-03-23 22:00:00 9.8 2 Noroeste 4 Norte 0 -- -- 91
2020-03-23 21:00:00 10.5 2 Norte 3 Norte 0 -- -- 90
2020-03-23 20:00:00 11.4 0 Calma 8 Sudeste 0.2 -- -- 87
2020-03-23 19:00:00 12.1 0 Calma 9 Sudeste 0 -- -- 79
2020-03-23 18:00:00 13.1 0 Calma 11 Sur 0 -- -- 80
2020-03-23 17:00:00 14.3 2 Sur 12 Sudeste 0 -- -- 70
2020-03-23 16:00:00 14.6 3 Sudeste 10 Sudoeste 0 -- -- 68
2020-03-23 15:00:00 13.2 0 Calma 4 Noroeste 0.4 -- -- 88
2020-03-23 14:00:00 13.9 0 Calma 7 Sur 0 -- -- 77
2020-03-23 13:00:00 13.9 2 Sur 9 Sur 0 -- -- 73
2020-03-23 12:00:00 14.5 0 Calma 7 Sur 0 -- -- 74
2020-03-23 11:00:00 14.3 3 Sudeste 8 Sudoeste 0 -- -- 73
2020-03-23 10:00:00 10.7 2 Sudoeste 8 Sur 0 -- -- 92
2020-03-23 09:00:00 6.7 2 Sur 4 Sur 0 -- -- 99
2020-03-23 08:00:00 5.4 0 Calma 2 Norte 0 -- -- 98
2020-03-23 07:00:00 5.3 0 Calma 3 Norte 0 -- -- 98
2020-03-23 06:00:00 5.6 0 Calma 2 Norte 0 -- -- 97
2020-03-23 05:00:00 5.9 0 Calma 2 Norte 0 -- -- 97
2020-03-23 04:00:00 6.3 0 Calma 2 Noroeste 0 -- -- 97
2020-03-23 03:00:00 6.5 0 Calma 2 Norte 0 -- -- 96
2020-03-23 02:00:00 7 0 Calma 2 Norte 0 -- -- 96
2020-03-23 01:00:00 7.7 0 Calma 3 Sur 0 -- -- 96
2020-03-23 00:00:00 8.5 0 Calma 3 Sudoeste 0 -- -- 97
2020-03-22 23:00:00 8.4 0 Calma 3 Norte 0 -- -- 96
2020-03-22 22:00:00 9.2 0 Calma 3 Norte 0 -- -- 95
2020-03-22 21:00:00 10.4 2 Norte 2 Norte 0 -- -- 94
2020-03-22 20:00:00 11.5 0 Calma 3 Este 0 -- -- 93
2020-03-22 19:00:00 12 0 Calma 3 Este 1.6 -- -- 92
2020-03-22 18:00:00 12.2 0 Calma 5 Sudoeste 0 -- -- 86
2020-03-22 17:00:00 12.4 3 Sur 10 Sur 0 -- -- 87
2020-03-22 16:00:00 12.8 4 Sudeste 10 Sur 0 -- -- 85
2020-03-22 15:00:00 13.5 3 Sur 7 Sur 0 -- -- 76
2020-03-22 14:00:00 13.8 3 Sur 9 Sudoeste 0.2 -- -- 76
2020-03-22 13:00:00 12 0 Calma 10 Sur 0.8 -- -- 84
2020-03-22 12:00:00 13.3 3 Sur 14 Sur 0 -- -- 77
2020-03-22 11:00:00 11.8 0 Calma 10 Sur 0 -- -- 82
2020-03-22 10:00:00 11.2 3 Sur 7 Este 0 -- -- 87
2020-03-22 09:00:00 8.3 2 Sur 5 Sur 0 -- -- 99
2020-03-22 08:00:00 6.3 0 Calma 2 Norte 0 -- -- 97
2020-03-22 07:00:00 6.7 0 Calma 3 Norte 0 -- -- 97
2020-03-22 06:00:00 7.3 0 Calma 3 Norte 0 -- -- 97
2020-03-22 05:00:00 8 0 Calma 2 Noroeste 0 -- -- 97
2020-03-22 04:00:00 8.2 0 Calma 2 Norte 0.2 -- -- 97
2020-03-22 03:00:00 8.2 0 Calma 2 Oeste 1.2 -- -- 97
2020-03-22 02:00:00 8.3 0 Calma 3 Nordeste 0.2 -- -- 96
2020-03-22 01:00:00 8.6 0 Calma 2 Norte 1.4 -- -- 97
2020-03-22 00:00:00 8.8 0 Calma 3 Norte 0.2 -- -- 96
2020-03-21 23:00:00 9.3 0 Calma 3 Norte 0.2 -- -- 97
2020-03-21 22:00:00 9.3 0 Calma 3 Noroeste 0 -- -- 96
2020-03-21 21:00:00 9.9 0 Calma 2 Norte 0.2 -- -- 96
2020-03-21 20:00:00 10.2 0 Calma 4 Nordeste 0 -- -- 96
2020-03-21 19:00:00 10.3 0 Calma 11 Sur 0.4 -- -- 95
2020-03-21 18:00:00 10.8 3 Sur 10 Sur 0.8 -- -- 95
2020-03-21 17:00:00 10.4 0 Calma 7 Sudoeste 2.2 -- -- 94
2020-03-21 16:00:00 10 2 Sur 7 Sur 7.6 -- -- 94
2020-03-21 15:00:00 10.1 3 Sur 13 Sudoeste 3.6 -- -- 92
2020-03-21 14:00:00 11.7 0 Calma 21 Sur 2.8 -- -- 90
2020-03-21 13:00:00 12.9 3 Sudeste 20 Sur 0.8 -- -- 84
2020-03-21 12:00:00 14.6 5 Sur 18 Sudoeste 0 -- -- 69
2020-03-21 11:00:00 12.6 2 Sur 9 Sur 0 -- -- 80
2020-03-21 10:00:00 12.2 0 Calma 6 Este 0 -- -- 86
2020-03-21 09:00:00 10.4 3 Sudeste 5 Sudeste 0 -- -- 97
2020-03-21 08:00:00 7.9 0 Calma 3 Norte 0.2 -- -- 98
2020-03-21 07:00:00 7.4 2 Noroeste 3 Norte 0 -- -- 97
2020-03-21 06:00:00 7.8 2 Norte 4 Noroeste 0 -- -- 97
2020-03-21 05:00:00 8.2 0 Calma 4 Norte 0 -- -- 96
2020-03-21 04:00:00 9.2 0 Calma 5 Norte 0 -- -- 94
2020-03-21 03:00:00 10.3 0 Calma 5 Noroeste 0 -- -- 95
2020-03-21 02:00:00 10.8 0 Calma 10 Sudoeste 3.2 -- -- 94
2020-03-21 01:00:00 12.3 4 Sur 27 Sudeste 8.8 -- -- 95
2020-03-21 00:00:00 12.9 7 Sur 23 Sudeste 2.6 -- -- 95
2020-03-20 23:00:00 12.9 4 Sudeste 16 Sur 1 -- -- 93
2020-03-20 22:00:00 12.9 3 Sudeste 11 Este 0.2 -- -- 93
2020-03-20 21:00:00 12.7 0 Calma 17 Sudoeste 0 -- -- 88
2020-03-20 20:00:00 13 2 Sudoeste 22 Este 0 -- -- 86
2020-03-20 19:00:00 13.7 3 Sur 14 Sur 0 -- -- 80
2020-03-20 18:00:00 14.6 3 Sur 10 Sur 0 -- -- 74
2020-03-20 17:00:00 15 5 Sur 12 Sur 0 -- -- 72
2020-03-20 16:00:00 14.9 3 Sudeste 12 Sudeste 0 -- -- 70
2020-03-20 15:00:00 14.4 3 Sudeste 16 Sudeste 0 -- -- 73
2020-03-20 14:00:00 14.2 4 Sudeste 21 Sudeste 0 -- -- 73
2020-03-20 13:00:00 14.9 9 Sudeste 22 Sur 0 -- -- 69
2020-03-20 12:00:00 14.3 5 Sudeste 17 Este 0 -- -- 73
2020-03-20 11:00:00 13.9 4 Este 17 Sudeste 0 -- -- 76
2020-03-20 10:00:00 13.6 2 Nordeste 12 Sudeste 0 -- -- 76
2020-03-20 09:00:00 13.2 2 Nordeste 15 Nordeste 0 -- -- 72
2020-03-20 08:00:00 12.1 3 Nordeste 8 Este 0 -- -- 73
2020-03-20 07:00:00 11.5 0 Calma 2 Noroeste 0 -- -- 82
2020-03-20 06:00:00 11.9 0 Calma 3 Norte 0 -- -- 80
2020-03-20 05:00:00 11.9 0 Calma 5 Sudeste 0 -- -- 76
2020-03-20 04:00:00 12.9 0 Calma 12 Este 0 -- -- 69
2020-03-20 03:00:00 13.1 2 Norte 14 Nordeste 0 -- -- 67
2020-03-20 02:00:00 12.9 0 Calma 6 Sur 0 -- -- 71
2020-03-20 01:00:00 13.5 2 Este 13 Sur 0 -- -- 76
2020-03-20 00:00:00 13.7 2 Sudeste 9 Este 0 -- -- 78
2020-03-19 23:00:00 13.7 2 Nordeste 8 Nordeste 0 -- -- 77
2020-03-19 22:00:00 13.3 0 Calma 5 Este 0 -- -- 78
2020-03-19 21:00:00 12.9 0 Calma 5 Sudeste 0 -- -- 81
2020-03-19 20:00:00 13.3 0 Calma 4 Norte 0 -- -- 78
2020-03-19 19:00:00 14.6 0 Calma 10 Sudeste 0 -- -- 74
2020-03-19 18:00:00 15.8 3 Este 13 Sudeste 0 -- -- 64
2020-03-19 17:00:00 16.5 4 Sudeste 13 Sudeste 0 -- -- 65
2020-03-19 16:00:00 15.8 3 Nordeste 18 Sudeste 0 -- -- 66
2020-03-19 15:00:00 16.2 4 Este 17 Sudeste 0 -- -- 65
2020-03-19 14:00:00 16.2 6 Sudeste 20 Sudeste 0 -- -- 64
2020-03-19 13:00:00 16.6 4 Norte 25 Noroeste 0 -- -- 61
2020-03-19 12:00:00 16.9 5 Este 25 Sudeste 0 -- -- 62
2020-03-19 11:00:00 15.9 5 Este 15 Nordeste 0 -- -- 64
2020-03-19 10:00:00 14.6 4 Este 16 Sur 0 -- -- 70
2020-03-19 09:00:00 14.1 4 Sudeste 19 Nordeste 0 -- -- 71
2020-03-19 08:00:00 13.9 2 Noroeste 20 Norte 0 -- -- 72
2020-03-19 07:00:00 13.7 3 Norte 12 Nordeste 0 -- -- 74
2020-03-19 06:00:00 13.9 3 Sudeste 10 Sudeste 0 -- -- 75
2020-03-19 05:00:00 14 0 Calma 13 Sudeste 0 -- -- 78
2020-03-19 04:00:00 14.3 2 Sudeste 12 Sudeste 0 -- -- 73
2020-03-19 03:00:00 14.2 3 Sudeste 13 Norte 0 -- -- 70
2020-03-19 02:00:00 13.7 2 Nordeste 9 Norte 0 -- -- 74
2020-03-19 01:00:00 13.9 0 Calma 18 Nordeste 0 -- -- 75
2020-03-19 00:00:00 14 2 Nordeste 13 Sur 0 -- -- 73
2020-03-18 23:00:00 14.6 5 Sur 17 Sudoeste 0 -- -- 69
2020-03-18 22:00:00 13.6 3 Sudeste 13 Sur 0 -- -- 75
2020-03-18 21:00:00 13.5 2 Nordeste 8 Oeste 0 -- -- 75
2020-03-18 20:00:00 13.9 3 Norte 5 Noroeste 0 -- -- 76
2020-03-18 19:00:00 15.3 0 Calma 19 Sudeste 0 -- -- 71
2020-03-18 18:00:00 16.4 6 Sudeste 20 Sudeste 0 -- -- 63
2020-03-18 17:00:00 16.7 4 Este 24 Este 0 -- -- 63
2020-03-18 16:00:00 16.5 5 Nordeste 21 Nordeste 0 -- -- 63
2020-03-18 15:00:00 16 5 Este 22 Sudeste 0 -- -- 68
2020-03-18 14:00:00 16 7 Sur 27 Nordeste 0 -- -- 67
2020-03-18 13:00:00 18.1 7 Sudeste 35 Sur 0 -- -- 59
2020-03-18 12:00:00 16.2 10 Sudeste 40 Sudeste 0 -- -- 68
2020-03-18 11:00:00 16.9 15 Sudeste 48 Este 0 -- -- 67
2020-03-18 10:00:00 15.3 15 Sudeste 48 Este 0 -- -- 71
2020-03-18 09:00:00 15.1 17 Sudeste 49 Sudeste 0 -- -- 74
2020-03-18 08:00:00 15.1 15 Sudeste 46 Sudeste 0 -- -- 73
2020-03-18 07:00:00 15 9 Sudeste 38 Sur 0 -- -- 73
2020-03-18 06:00:00 15.1 12 Sudeste 39 Este 0 -- -- 71
2020-03-18 05:00:00 15.2 9 Sudeste 34 Sudeste 0 -- -- 72
2020-03-18 04:00:00 15 10 Sudeste 35 Sudeste 0 -- -- 76
2020-03-18 03:00:00 15 9 Sudeste 36 Norte 0 -- -- 76
2020-03-18 02:00:00 15.1 10 Este 48 Este 0.4 -- -- 75
2020-03-18 01:00:00 15.5 10 Sudeste 41 Sudeste 0 -- -- 73
2020-03-18 00:00:00 15.2 9 Sudeste 34 Sudeste 0 -- -- 74
2020-03-17 23:00:00 14.7 8 Sudeste 26 Sudeste 0 -- -- 75
2020-03-17 22:00:00 14.3 3 Oeste 31 Sudeste 0 -- -- 72
2020-03-17 21:00:00 13.7 8 Este 23 Este 0 -- -- 73
2020-03-17 20:00:00 12.7 5 Sudeste 19 Norte 0 -- -- 67
2020-03-17 19:00:00 12.9 6 Sudeste 20 Sudeste 0.2 -- -- 66
2020-03-17 18:00:00 13.3 4 Este 21 Sur 0 -- -- 67
2020-03-17 17:00:00 14.4 9 Sudeste 38 Este 0 -- -- 55
2020-03-17 16:00:00 15.4 11 Sudeste 32 Sudeste 0 -- -- 50
2020-03-17 15:00:00 14.4 9 Sudeste 30 Sudeste 0 -- -- 57
2020-03-17 14:00:00 14.1 6 Este 32 Sudeste 0 -- -- 57
2020-03-17 13:00:00 15.1 7 Sudeste 32 Sudeste 0 -- -- 53
2020-03-17 12:00:00 13.2 6 Sudeste 19 Sur 0 -- -- 65
2020-03-17 11:00:00 8.6 2 Norte 6 Este 0.2 -- -- 88
2020-03-17 10:00:00 7.6 2 Noroeste 13 Norte 0.4 -- -- 90
2020-03-17 09:00:00 7.4 3 Norte 15 Norte 0 -- -- 90
2020-03-17 08:00:00 7.3 0 Calma 9 Noroeste 0.4 -- -- 92
2020-03-17 07:00:00 7.4 0 Calma 6 Oeste 1.4 -- -- 92
2020-03-17 06:00:00 7.9 0 Calma 4 Noroeste 0 -- -- 87
2020-03-17 05:00:00 8.3 0 Calma 3 Este 0 -- -- 79
2020-03-17 04:00:00 8.3 0 Calma 4 Sudeste 0 -- -- 72
2020-03-17 03:00:00 8.2 0 Calma 7 Sudeste 0 -- -- 72
2020-03-17 02:00:00 7.3 2 Sudoeste 7 Norte 0 -- -- 74
2020-03-17 01:00:00 7.2 2 Norte 4 Norte 0 -- -- 72
2020-03-17 00:00:00 8.3 2 Norte 4 Norte 0 -- -- 66
2020-03-16 23:00:00 9.9 0 Calma 9 Este 0 -- -- 59
2020-03-16 22:00:00 10.7 3 Norte 15 Norte 0 -- -- 56
2020-03-16 21:00:00 10.9 2 Norte 11 Norte 0 -- -- 53
2020-03-16 20:00:00 10.5 2 Norte 3 Norte 0 -- -- 60
2020-03-16 19:00:00 12 0 Calma 14 Nordeste 0 -- -- 52
2020-03-16 18:00:00 13.3 4 Norte 18 Norte 0 -- -- 43
2020-03-16 17:00:00 14.3 7 Norte 22 Norte 0 -- -- 40
2020-03-16 16:00:00 15.2 7 Norte 30 Oeste 0 -- -- 38
2020-03-16 15:00:00 14.2 4 Este 26 Nordeste 0 -- -- 43
2020-03-16 14:00:00 14.9 5 Este 21 Nordeste 0 -- -- 40
2020-03-16 13:00:00 14.6 5 Noroeste 27 Noroeste 0 -- -- 37
2020-03-16 12:00:00 14 6 Noroeste 24 Norte 0 -- -- 40
2020-03-16 11:00:00 13 5 Este 24 Nordeste 0 -- -- 46
2020-03-16 10:00:00 12 4 Este 21 Nordeste 0 -- -- 51
2020-03-16 09:00:00 9.3 7 Norte 25 Oeste 0 -- -- 60
2020-03-16 08:00:00 10 6 Norte 19 Norte 0 -- -- 60
2020-03-16 07:00:00 10.4 5 Norte 21 Oeste 0 -- -- 62
2020-03-16 06:00:00 11.5 4 Noroeste 17 Noroeste 0 -- -- 74
2020-03-16 05:00:00 12.3 3 Norte 16 Oeste 0 -- -- 81
2020-03-16 04:00:00 12.5 2 Sudoeste 6 Sudoeste 0 -- -- 89
2020-03-16 03:00:00 12.2 0 Calma 4 Sudoeste 0 -- -- 88
2020-03-16 02:00:00 11.9 0 Calma 4 Norte 0 -- -- 90
2020-03-16 01:00:00 11.3 2 Norte 3 Norte 0 -- -- 89
2020-03-16 00:00:00 12.8 0 Calma 3 Sudoeste 0 -- -- 85
2020-03-15 23:00:00 13.2 0 Calma 3 Nordeste 0 -- -- 85
2020-03-15 22:00:00 13.2 0 Calma 4 Sudeste 0 -- -- 86
2020-03-15 21:00:00 13.3 0 Calma 10 Sur 0 -- -- 86
2020-03-15 20:00:00 13.7 2 Sur 8 Sudoeste 0 -- -- 83
2020-03-15 19:00:00 14.4 0 Calma 7 Sur 0 -- -- 81
2020-03-15 18:00:00 15.3 3 Sur 11 Sudoeste 0 -- -- 77
2020-03-15 17:00:00 15.6 4 Sur 14 Sudoeste 0 -- -- 77
2020-03-15 16:00:00 16.5 5 Sur 15 Sur 0 -- -- 76
2020-03-15 15:00:00 16.8 4 Sur 16 Sudoeste 0 -- -- 76
2020-03-15 14:00:00 18.2 5 Sur 15 Sur 0 -- -- 73
2020-03-15 13:00:00 17.5 4 Sur 14 Sudeste 0 -- -- 74
2020-03-15 12:00:00 15.9 5 Sur 10 Sur 0 -- -- 80
2020-03-15 11:00:00 13.7 2 Sur 6 Sur 0 -- -- 87
2020-03-15 10:00:00 12.2 0 Calma 4 Sur 0 -- -- 93
2020-03-15 09:00:00 10.6 0 Calma 3 Sur 0 -- -- 96
2020-03-15 08:00:00 9.7 0 Calma 3 Norte 0 -- -- 95
2020-03-15 07:00:00 9.5 2 Norte 3 Norte 0 -- -- 94
2020-03-15 06:00:00 9.5 2 Norte 3 Norte 0 -- -- 93
2020-03-15 05:00:00 10.2 2 Norte 3 Norte 0 -- -- 91
2020-03-15 04:00:00 11.6 0 Calma 2 Oeste 0 -- -- 89
2020-03-15 03:00:00 12.4 0 Calma 4 Sudoeste 0 -- -- 90
2020-03-15 02:00:00 12.3 0 Calma 5 Sudoeste 0 -- -- 91
2020-03-15 01:00:00 12.4 0 Calma 4 Sur 0 -- -- 91
2020-03-15 00:00:00 12.4 0 Calma 4 Oeste 0 -- -- 91
2020-03-14 23:00:00 12.8 0 Calma 3 Noroeste 0 -- -- 86
2020-03-14 22:00:00 13.6 0 Calma 4 Sur 0 -- -- 86
2020-03-14 21:00:00 13.8 0 Calma 4 Sudoeste 0 -- -- 85
2020-03-14 20:00:00 14.3 0 Calma 4 Este 0 -- -- 83
2020-03-14 19:00:00 15.2 0 Calma 8 Sudoeste 0 -- -- 81
2020-03-14 18:00:00 16.7 3 Sudeste 16 Sur 0 -- -- 76
2020-03-14 17:00:00 17.9 4 Sur 15 Sur 0 -- -- 71
2020-03-14 16:00:00 18.3 6 Sur 21 Sur 0 -- -- 69
2020-03-14 15:00:00 19.4 6 Sur 22 Sudoeste 0 -- -- 67
2020-03-14 14:00:00 19.1 5 Sur 15 Sur 0 -- -- 67
2020-03-14 13:00:00 17.5 5 Sur 16 Sur 0 -- -- 72
2020-03-14 12:00:00 18 6 Sur 15 Sur 0 -- -- 71
2020-03-14 11:00:00 17 4 Sur 14 Sur 0 -- -- 72
2020-03-14 10:00:00 12 0 Calma 5 Sur 0 -- -- 86
2020-03-14 09:00:00 10.8 0 Calma 4 Sur 0 -- -- 89
2020-03-14 08:00:00 10.1 0 Calma 4 Este 0 -- -- 89
2020-03-14 07:00:00 10.8 0 Calma 2 Sur 0 -- -- 90
2020-03-14 06:00:00 10.7 0 Calma 3 Sur 0 -- -- 90
2020-03-14 05:00:00 10.6 0 Calma 4 Sur 0 -- -- 90
2020-03-14 04:00:00 10.4 0 Calma 3 Oeste 0 -- -- 92
2020-03-14 03:00:00 9.7 0 Calma 2 Norte 0 -- -- 91
2020-03-14 02:00:00 10.3 0 Calma 3 Norte 0 -- -- 89
2020-03-14 01:00:00 11.1 0 Calma 3 Noroeste 0 -- -- 87
2020-03-14 00:00:00 12.1 0 Calma 2 Norte 0 -- -- 84
2020-03-13 23:00:00 12.9 2 Norte 3 Noroeste 0 -- -- 82
2020-03-13 22:00:00 13.9 2 Norte 3 Norte 0 -- -- 78
2020-03-13 21:00:00 15.2 0 Calma 12 Nordeste 0 -- -- 74
2020-03-13 20:00:00 17.4 3 Norte 12 Noroeste 0 -- -- 64
2020-03-13 19:00:00 18.9 5 Norte 21 Nordeste 0 -- -- 58
2020-03-13 18:00:00 20.2 6 Norte 21 Nordeste 0 -- -- 55
2020-03-13 17:00:00 22.1 8 Norte 22 Norte 0 -- -- 49
2020-03-13 16:00:00 23.4 4 Norte 21 Nordeste 0 -- -- 40
2020-03-13 15:00:00 24.4 8 Sudeste 17 Sudeste 0 -- -- 40
2020-03-13 14:00:00 22.8 5 Sur 10 Este 0 -- -- 47
2020-03-13 13:00:00 20.6 0 Calma 9 Sur 0 -- -- 53
2020-03-13 12:00:00 20.2 4 Sur 10 Sur 0 -- -- 59
2020-03-13 11:00:00 19.8 3 Sudoeste 6 Sur 0 -- -- 55
2020-03-13 10:00:00 16.1 3 Sudoeste 7 Sur 0 -- -- 66
2020-03-13 09:00:00 11.9 0 Calma 3 Norte 0 -- -- 82
2020-03-13 08:00:00 9.4 0 Calma 4 Norte 0 -- -- 84
2020-03-13 07:00:00 9.7 2 Noroeste 4 Noroeste 0 -- -- 83
2020-03-13 06:00:00 10.4 0 Calma 4 Norte 0 -- -- 81
2020-03-13 05:00:00 10.6 0 Calma 4 Norte 0 -- -- 79
2020-03-13 04:00:00 10.8 0 Calma 4 Norte 0 -- -- 78
2020-03-13 03:00:00 11.4 2 Norte 4 Noroeste 0 -- -- 78
2020-03-13 02:00:00 12 2 Norte 5 Norte 0 -- -- 80
2020-03-13 01:00:00 12.8 2 Noroeste 5 Noroeste 0 -- -- 81
2020-03-13 00:00:00 13.4 2 Norte 4 Norte 0 -- -- 79
2020-03-12 23:00:00 14.3 2 Noroeste 4 Noroeste 0 -- -- 74
2020-03-12 22:00:00 15.1 2 Noroeste 4 Norte 0 -- -- 71
2020-03-12 21:00:00 15.7 0 Calma 4 Norte 0 -- -- 65
2020-03-12 20:00:00 16.6 3 Norte 4 Norte 0 -- -- 62
2020-03-12 19:00:00 18.5 3 Norte 4 Norte 0 -- -- 58
2020-03-12 18:00:00 20.7 2 Noroeste 5 Sudeste 0 -- -- 51
2020-03-12 17:00:00 22 0 Calma 10 Sur 0 -- -- 46
2020-03-12 16:00:00 24.2 5 Sudoeste 15 Sur 0 -- -- 37
2020-03-12 15:00:00 24.3 4 Sur 16 Sur 0 -- -- 41
2020-03-12 14:00:00 23.7 4 Sur 15 Sudoeste 0 -- -- 42
2020-03-12 13:00:00 23.1 6 Sur 17 Sur 0 -- -- 45
2020-03-12 12:00:00 21.8 5 Sur 11 Sur 0 -- -- 46
2020-03-12 11:00:00 20.1 3 Sur 8 Sur 0 -- -- 52
2020-03-12 10:00:00 17.8 0 Calma 4 Sudeste 0 -- -- 60
2020-03-12 09:00:00 13.4 0 Calma 3 Norte 0 -- -- 80
2020-03-12 08:00:00 11.8 2 Noroeste 4 Norte 0 -- -- 75
2020-03-12 07:00:00 11.8 2 Noroeste 4 Norte 0 -- -- 73
2020-03-12 06:00:00 11.5 2 Norte 3 Norte 0 -- -- 75
2020-03-12 05:00:00 11.2 0 Calma 3 Norte 0 -- -- 75
2020-03-12 04:00:00 11 0 Calma 4 Noroeste 0 -- -- 76
2020-03-12 03:00:00 11.2 2 Norte 4 Noroeste 0 -- -- 75
2020-03-12 02:00:00 11.3 2 Norte 4 Norte 0 -- -- 76
2020-03-12 01:00:00 11.3 3 Norte 4 Norte 0 -- -- 76
2020-03-12 00:00:00 11.4 3 Norte 5 Norte 0 -- -- 76
2020-03-11 23:00:00 11.6 3 Norte 4 Norte 0 -- -- 75
2020-03-11 22:00:00 12 3 Norte 4 Norte 0 -- -- 73
2020-03-11 21:00:00 13 3 Norte 4 Norte 0 -- -- 71
2020-03-11 20:00:00 15.1 3 Norte 4 Norte 0 -- -- 68
2020-03-11 19:00:00 17.8 2 Norte 4 Sur 0 -- -- 64
2020-03-11 18:00:00 19.4 0 Calma 7 Sur 0 -- -- 57
2020-03-11 17:00:00 21.5 2 Sur 11 Sur 0 -- -- 48
2020-03-11 16:00:00 20.9 4 Sur 12 Sudoeste 0 -- -- 47
2020-03-11 15:00:00 22.1 3 Sudeste 10 Sudoeste 0 -- -- 46
2020-03-11 14:00:00 23.3 4 Sudeste 8 Sur 0 -- -- 43
2020-03-11 13:00:00 21.6 4 Sur 9 Sur 0 -- -- 47
2020-03-11 12:00:00 20.3 4 Sudeste 12 Sur 0 -- -- 47
2020-03-11 11:00:00 19 5 Sur 10 Sur 0 -- -- 46
2020-03-11 10:00:00 16.5 3 Sur 5 Sur 0 -- -- 54
2020-03-11 09:00:00 11.5 0 Calma 3 Norte 0 -- -- 75
2020-03-11 08:00:00 8.6 2 Norte 4 Norte 0 -- -- 80
2020-03-11 07:00:00 8.2 0 Calma 3 Norte 0 -- -- 83
2020-03-11 06:00:00 8 0 Calma 3 Norte 0 -- -- 83
2020-03-11 05:00:00 8.2 0 Calma 4 Norte 0 -- -- 80
2020-03-11 04:00:00 8.6 0 Calma 3 Norte 0 -- -- 78
2020-03-11 03:00:00 9.1 0 Calma 3 Norte 0 -- -- 75
2020-03-11 02:00:00 9.5 2 Noroeste 7 Oeste 0 -- -- 75
2020-03-11 01:00:00 9.7 2 Noroeste 5 Sudoeste 0 -- -- 73
2020-03-11 00:00:00 10.1 2 Norte 3 Norte 0 -- -- 71
2020-03-10 23:00:00 10.7 2 Noroeste 3 Noroeste 0 -- -- 69
2020-03-10 22:00:00 11.1 2 Norte 3 Norte 0 -- -- 66
2020-03-10 21:00:00 12.1 2 Norte 4 Norte 0 -- -- 60
2020-03-10 20:00:00 13.6 2 Norte 4 Noroeste 0 -- -- 57
2020-03-10 19:00:00 16.1 0 Calma 11 Sudoeste 0 -- -- 50
2020-03-10 18:00:00 17.8 3 Sudeste 14 Sudoeste 0 -- -- 43
2020-03-10 17:00:00 19.5 4 Sur 13 Sudoeste 0 -- -- 45
2020-03-10 16:00:00 21.3 5 Sur 17 Sudoeste 0 -- -- 49
2020-03-10 15:00:00 23.3 6 Sudeste 21 Sur 0 -- -- 38
2020-03-10 14:00:00 25.1 5 Sudeste 16 Este 0 -- -- 28
2020-03-10 13:00:00 24.1 6 Sur 14 Sur 0 -- -- 32
2020-03-10 12:00:00 22.9 4 Sur 13 Sur 0 -- -- 37
2020-03-10 11:00:00 21.3 4 Sur 8 Sudoeste 0 -- -- 38
2020-03-10 10:00:00 18.4 3 Sur 8 Sur 0 -- -- 47
2020-03-10 09:00:00 14.5 2 Sudeste 5 Sur 0 -- -- 55
2020-03-10 08:00:00 13.9 2 Noroeste 12 Sudeste 0 -- -- 52
2020-03-10 07:00:00 15.8 4 Este 15 Nordeste 0 -- -- 41
2020-03-10 06:00:00 16.3 2 Sur 22 Nordeste 0 -- -- 40
2020-03-10 05:00:00 15.9 4 Norte 14 Norte 0 -- -- 39
2020-03-10 04:00:00 13.8 3 Norte 15 Noroeste 0 -- -- 47
2020-03-10 03:00:00 13.4 3 Norte 11 Este 0 -- -- 53
2020-03-10 02:00:00 15 2 Norte 17 Este 0 -- -- 51
2020-03-10 01:00:00 13.8 3 Noroeste 13 Norte 0 -- -- 54
2020-03-10 00:00:00 14.3 5 Norte 11 Norte 0 -- -- 53
2020-03-09 23:00:00 14.8 5 Norte 13 Norte 0 -- -- 51
2020-03-09 22:00:00 14.9 3 Norte 7 Norte 0 -- -- 48
2020-03-09 21:00:00 15.5 3 Norte 10 Nordeste 0 -- -- 46
2020-03-09 20:00:00 17.3 4 Norte 16 Noroeste 0 -- -- 41
2020-03-09 19:00:00 19 5 Norte 17 Noroeste 0 -- -- 35
2020-03-09 18:00:00 20.9 3 Norte 17 Noroeste 0 -- -- 35
2020-03-09 17:00:00 22.8 5 Norte 19 Norte 0 -- -- 31
2020-03-09 16:00:00 23.7 5 Norte 17 Noroeste 0 -- -- 32
2020-03-09 15:00:00 24.3 5 Norte 22 Nordeste 0 -- -- 29
2020-03-09 14:00:00 23.6 6 Norte 22 Noroeste 0 -- -- 25
2020-03-09 13:00:00 23.1 3 Sur 17 Sudeste 0 -- -- 24
2020-03-09 12:00:00 22.8 6 Sudeste 20 Sudeste 0 -- -- 28
2020-03-09 11:00:00 22.1 4 Nordeste 18 Nordeste 0 -- -- 31
2020-03-09 10:00:00 20.1 7 Norte 19 Nordeste 0 -- -- 34
2020-03-09 09:00:00 17.2 4 Este 16 Oeste 0 -- -- 48
2020-03-09 08:00:00 14.5 4 Norte 21 Norte 0 -- -- 49
2020-03-09 07:00:00 14.1 6 Norte 21 Norte 0 -- -- 47
2020-03-09 06:00:00 13.6 6 Norte 17 Nordeste 0 -- -- 48
2020-03-09 05:00:00 12.4 0 Calma 13 Nordeste 0 -- -- 52
2020-03-09 04:00:00 10.6 0 Calma 4 Norte 0 -- -- 61
2020-03-09 03:00:00 10.9 0 Calma 4 Norte 0 -- -- 59
2020-03-09 02:00:00 12.6 0 Calma 10 Nordeste 0 -- -- 53
2020-03-09 01:00:00 13.8 3 Noroeste 18 Norte 0 -- -- 50
2020-03-09 00:00:00 13.6 0 Calma 4 Sudoeste 0 -- -- 52
2020-03-08 23:00:00 13.4 0 Calma 3 Noroeste 0 -- -- 55
2020-03-08 22:00:00 13.6 0 Calma 6 Norte 0 -- -- 53
2020-03-08 21:00:00 14.8 3 Norte 9 Noroeste 0 -- -- 50
2020-03-08 20:00:00 14.4 3 Norte 4 Norte 0 -- -- 55
2020-03-08 19:00:00 16.5 2 Noroeste 4 Norte 0 -- -- 63
2020-03-08 18:00:00 18.5 0 Calma 9 Sur 0 -- -- 54
2020-03-08 17:00:00 20.8 4 Sur 16 Sur 0 -- -- 46
2020-03-08 16:00:00 21.5 5 Sur 18 Sur 0 -- -- 42
2020-03-08 15:00:00 22 6 Sudoeste 16 Sur 0 -- -- 43
2020-03-08 14:00:00 21.2 6 Sur 15 Sur 0 -- -- 44
2020-03-08 13:00:00 20.3 6 Sur 12 Sur 0 -- -- 42
2020-03-08 12:00:00 18.8 4 Sudeste 9 Sudeste 0 -- -- 37
2020-03-08 11:00:00 16.2 3 Sudeste 7 Sudeste 0 -- -- 45
2020-03-08 10:00:00 11.7 3 Sur 6 Sur 0 -- -- 58
2020-03-08 09:00:00 7.7 2 Sur 5 Sur 0 -- -- 73
2020-03-08 08:00:00 4.6 0 Calma 3 Norte 0 -- -- 81
2020-03-08 07:00:00 5.3 0 Calma 3 Norte 0 -- -- 79
2020-03-08 06:00:00 5.9 0 Calma 3 Norte 0 -- -- 77
2020-03-08 05:00:00 6.8 0 Calma 3 Norte 0 -- -- 73
2020-03-08 04:00:00 8 0 Calma 5 Noroeste 0 -- -- 67
2020-03-08 03:00:00 9.3 3 Norte 4 Noroeste 0 -- -- 62
2020-03-08 02:00:00 10.9 2 Noroeste 15 Noroeste 0 -- -- 57
2020-03-08 01:00:00 11.4 2 Norte 9 Este 0 -- -- 53
2020-03-08 00:00:00 12.2 2 Norte 13 Sudeste 0 -- -- 51
2020-03-07 23:00:00 13.9 3 Norte 19 Nordeste 0 -- -- 43
2020-03-07 22:00:00 12.1 4 Norte 11 Nordeste 0 -- -- 50
2020-03-07 21:00:00 10.5 3 Norte 6 Norte 0 -- -- 64
2020-03-07 20:00:00 12.1 3 Noroeste 3 Norte 0 -- -- 64
2020-03-07 19:00:00 15.2 2 Norte 8 Sur 0 -- -- 57
2020-03-07 18:00:00 16.5 2 Sur 13 Sur 0 -- -- 47
2020-03-07 17:00:00 17.6 3 Sudeste 12 Sudoeste 0 -- -- 44
2020-03-07 16:00:00 18.6 3 Sur 14 Sudoeste 0 -- -- 40
2020-03-07 15:00:00 20.4 5 Sur 16 Sudoeste 0 -- -- 37
2020-03-07 14:00:00 20.2 5 Sudeste 15 Sudeste 0 -- -- 39
2020-03-07 13:00:00 19.3 4 Sur 13 Nordeste 0 -- -- 36
2020-03-07 12:00:00 18.6 5 Este 15 Este 0 -- -- 32
2020-03-07 11:00:00 17.5 4 Este 17 Este 0 -- -- 39
2020-03-07 10:00:00 14.4 4 Sudeste 19 Sudeste 0 -- -- 50
2020-03-07 09:00:00 11 6 Sudeste 15 Sudeste 0 -- -- 57
2020-03-07 08:00:00 7.2 0 Calma 8 Sudeste 0 -- -- 72
2020-03-07 07:00:00 8.3 0 Calma 9 Nordeste 0 -- -- 68
2020-03-07 06:00:00 9.7 4 Norte 20 Nordeste 0 -- -- 59
2020-03-07 05:00:00 8.9 6 Norte 25 Nordeste 0 -- -- 65
2020-03-07 04:00:00 8.6 0 Calma 7 Nordeste 0 -- -- 72
2020-03-07 03:00:00 9.2 2 Norte 8 Norte 0 -- -- 70
2020-03-07 02:00:00 10.2 3 Norte 21 Sudeste 0 -- -- 67
2020-03-07 01:00:00 10.9 3 Norte 16 Sudeste 0 -- -- 62
2020-03-07 00:00:00 11.3 3 Norte 15 Nordeste 0 -- -- 62
2020-03-06 23:00:00 11.8 2 Norte 17 Norte 0 -- -- 61
2020-03-06 22:00:00 10.1 3 Norte 8 Nordeste 0 -- -- 72
2020-03-06 21:00:00 10.4 4 Norte 5 Noroeste 0 -- -- 70
2020-03-06 20:00:00 12.1 3 Norte 14 Sur 0 -- -- 63
2020-03-06 19:00:00 14 3 Oeste 16 Oeste 0 -- -- 57
2020-03-06 18:00:00 15.2 3 Noroeste 26 Noroeste 0 -- -- 50
2020-03-06 17:00:00 15.9 5 Noroeste 26 Este 0 -- -- 51
2020-03-06 16:00:00 16.1 6 Norte 28 Nordeste 0 -- -- 52
2020-03-06 15:00:00 16.2 8 Norte 23 Noroeste 0 -- -- 52
2020-03-06 14:00:00 16.2 9 Norte 28 Noroeste 0 -- -- 53
2020-03-06 13:00:00 16 6 Norte 29 Nordeste 0 -- -- 57
2020-03-06 12:00:00 14.5 8 Norte 32 Nordeste 0 -- -- 63
2020-03-06 11:00:00 12.9 6 Norte 21 Nordeste 0 -- -- 71
2020-03-06 10:00:00 11.4 5 Este 24 Norte 0 -- -- 75
2020-03-06 09:00:00 10.7 5 Norte 22 Este 0 -- -- 75
2020-03-06 08:00:00 8.4 3 Este 13 Este 0 -- -- 79
2020-03-06 07:00:00 8.6 6 Nordeste 19 Norte 0 -- -- 77
2020-03-06 06:00:00 8.7 4 Este 17 Norte 0 -- -- 78
2020-03-06 05:00:00 8.9 4 Nordeste 13 Sudeste 0 -- -- 78
2020-03-06 04:00:00 8.9 3 Este 11 Este 0 -- -- 79
2020-03-06 03:00:00 9.7 3 Este 24 Nordeste 0 -- -- 77
2020-03-06 02:00:00 10.4 4 Nordeste 18 Norte 0 -- -- 75
2020-03-06 01:00:00 10.5 3 Este 15 Sudeste 0 -- -- 77
2020-03-06 00:00:00 10.1 2 Nordeste 9 Nordeste 0 -- -- 85
2020-03-05 23:00:00 9.9 2 Noroeste 5 Noroeste 0 -- -- 89
2020-03-05 22:00:00 10.4 2 Norte 5 Noroeste 0 -- -- 85
2020-03-05 21:00:00 11.1 0 Calma 6 Este 0 -- -- 83
2020-03-05 20:00:00 12 2 Norte 12 Norte 0 -- -- 78
2020-03-05 19:00:00 14.2 4 Este 14 Nordeste 0 -- -- 67
2020-03-05 18:00:00 15.1 4 Este 21 Este 0 -- -- 72
2020-03-05 17:00:00 15.7 4 Sur 17 Noroeste 0 -- -- 72
2020-03-05 16:00:00 16.2 4 Sudeste 23 Sur 0 -- -- 74
2020-03-05 15:00:00 15.8 5 Este 30 Sudoeste 0 -- -- 75
2020-03-05 14:00:00 14.9 3 Nordeste 22 Nordeste 0 -- -- 79
2020-03-05 13:00:00 14.9 6 Sur 17 Este 0 -- -- 72
2020-03-05 12:00:00 15 5 Este 15 Sudeste 0 -- -- 74
2020-03-05 11:00:00 15.2 6 Sudeste 18 Este 0 -- -- 74
2020-03-05 10:00:00 17 5 Sudeste 18 Sudeste 0 -- -- 66
2020-03-05 09:00:00 14.4 3 Este 13 Sudeste 0 -- -- 72
2020-03-05 08:00:00 12.5 3 Norte 19 Norte 0 -- -- 76
2020-03-05 07:00:00 13.3 7 Norte 19 Este 0 -- -- 73
2020-03-05 06:00:00 12.2 4 Norte 20 Norte 0 -- -- 80
2020-03-05 05:00:00 12.2 3 Noroeste 15 Nordeste 0 -- -- 79
2020-03-05 04:00:00 12.3 4 Noroeste 15 Nordeste 0 -- -- 79
2020-03-05 03:00:00 12.8 4 Noroeste 17 Nordeste 0 -- -- 79
2020-03-05 02:00:00 13.1 3 Noroeste 14 Norte 0 -- -- 79
2020-03-05 01:00:00 13.3 5 Norte 17 Nordeste 0 -- -- 80
2020-03-05 00:00:00 13.8 5 Norte 23 Norte 0 -- -- 80
2020-03-04 23:00:00 13.9 4 Norte 17 Nordeste 0 -- -- 79
2020-03-04 22:00:00 14.2 3 Norte 15 Norte 0 -- -- 80
2020-03-04 21:00:00 14.8 2 Noroeste 21 Nordeste 0 -- -- 76
2020-03-04 20:00:00 14.9 3 Norte 12 Norte 0 -- -- 73
2020-03-04 19:00:00 16.4 2 Norte 10 Nordeste 0 -- -- 67
2020-03-04 18:00:00 17.9 3 Noroeste 21 Noroeste 0 -- -- 60
2020-03-04 17:00:00 18.8 5 Norte 21 Noroeste 0 -- -- 56
2020-03-04 16:00:00 19.3 7 Norte 24 Norte 0 -- -- 56
2020-03-04 15:00:00 20.2 7 Norte 26 Noroeste 0 -- -- 56
2020-03-04 14:00:00 20.2 8 Noroeste 27 Noroeste 0 -- -- 56
2020-03-04 13:00:00 20.1 6 Noroeste 27 Nordeste 0 -- -- 58
2020-03-04 12:00:00 19.7 4 Noroeste 22 Nordeste 0 -- -- 58
2020-03-04 11:00:00 18.5 4 Noroeste 20 Oeste 0 -- -- 60
2020-03-04 10:00:00 16.7 6 Nordeste 22 Este 0 -- -- 67
2020-03-04 09:00:00 14.4 3 Nordeste 17 Nordeste 0 -- -- 78
2020-03-04 08:00:00 11.9 3 Norte 15 Norte 0 -- -- 90
2020-03-04 07:00:00 11.6 0 Calma 11 Sur 0 -- -- 91
2020-03-04 06:00:00 13 0 Calma 10 Noroeste 0 -- -- 86
2020-03-04 05:00:00 13.7 2 Nordeste 13 Noroeste 0 -- -- 84
2020-03-04 04:00:00 13.8 2 Este 10 Nordeste 0 -- -- 86
2020-03-04 03:00:00 13.8 3 Sudeste 9 Sudeste 0 -- -- 88
2020-03-04 02:00:00 13.6 0 Calma 10 Sudeste 0 -- -- 91
2020-03-04 01:00:00 13.7 0 Calma 7 Sudeste 0 -- -- 91
2020-03-04 00:00:00 13.9 2 Este 8 Sudeste 0 -- -- 87
2020-03-03 23:00:00 13.9 3 Este 10 Sudeste 0 -- -- 86
2020-03-03 22:00:00 13.8 3 Nordeste 14 Este 0 -- -- 84
2020-03-03 21:00:00 14.1 2 Este 12 Este 0 -- -- 79
2020-03-03 20:00:00 14.4 0 Calma 8 Nordeste 0 -- -- 77
2020-03-03 19:00:00 15.1 3 Sudeste 11 Este 0 -- -- 73
2020-03-03 18:00:00 15.6 3 Sur 23 Sur 0 -- -- 69
2020-03-03 17:00:00 16.5 5 Sudeste 17 Sur 0 -- -- 66
2020-03-03 16:00:00 16.6 4 Sur 19 Oeste 0 -- -- 61
2020-03-03 15:00:00 17.3 5 Sur 22 Norte 0 -- -- 59
2020-03-03 14:00:00 16.8 5 Sudeste 15 Sudoeste 0 -- -- 56
2020-03-03 13:00:00 17.3 5 Nordeste 15 Este 0 -- -- 50
2020-03-03 12:00:00 16.1 5 Nordeste 24 Noroeste 0 -- -- 57
2020-03-03 11:00:00 14.6 5 Norte 27 Nordeste 0 -- -- 62
2020-03-03 10:00:00 12.7 6 Nordeste 20 Norte 0 -- -- 70
2020-03-03 09:00:00 9.2 2 Nordeste 7 Sudeste 0 -- -- 90
2020-03-03 08:00:00 7.3 2 Noroeste 4 Norte 0 -- -- 91
2020-03-03 07:00:00 7.5 2 Noroeste 4 Norte 0 -- -- 90
2020-03-03 06:00:00 8.1 2 Noroeste 4 Norte 0 -- -- 88
2020-03-03 05:00:00 8.7 0 Calma 5 Nordeste 0 -- -- 87
2020-03-03 04:00:00 8.9 0 Calma 7 Norte 0 -- -- 86
2020-03-03 03:00:00 9.2 2 Norte 6 Norte 0 -- -- 86
2020-03-03 02:00:00 9.4 3 Norte 9 Noroeste 0 -- -- 88
2020-03-03 01:00:00 9.4 2 Norte 5 Norte 0 -- -- 90
2020-03-03 00:00:00 10 2 Norte 5 Norte 0 -- -- 89
2020-03-02 23:00:00 10.5 2 Norte 5 Sudeste 0 -- -- 85
2020-03-02 22:00:00 11.8 0 Calma 10 Norte 0 -- -- 79
2020-03-02 21:00:00 12.2 0 Calma 8 Oeste 0 -- -- 78
2020-03-02 20:00:00 14 3 Sur 19 Oeste 0 -- -- 70
2020-03-02 19:00:00 15.1 2 Sudoeste 18 Norte 0 -- -- 71
2020-03-02 18:00:00 16.5 4 Oeste 19 Sudoeste 0 -- -- 70
2020-03-02 17:00:00 17.5 5 Este 19 Sur 0 -- -- 69
2020-03-02 16:00:00 17.9 5 Sur 19 Noroeste 0 -- -- 66
2020-03-02 15:00:00 17.8 4 Norte 17 Sudoeste 0 -- -- 70
2020-03-02 14:00:00 18.7 5 Sur 17 Sudoeste 0 -- -- 71
2020-03-02 13:00:00 19.1 5 Norte 15 Oeste 0.2 -- -- 73
2020-03-02 12:00:00 18.2 5 Sur 17 Sudoeste 0 -- -- 77
2020-03-02 11:00:00 16.2 5 Este 19 Sudoeste 0.4 -- -- 88
2020-03-02 10:00:00 14.4 2 Sudeste 15 Norte 1.4 -- -- 92
2020-03-02 09:00:00 13.7 2 Norte 14 Noroeste 0.8 -- -- 93
2020-03-02 08:00:00 13.9 4 Norte 19 Norte 0.4 -- -- 88
2020-03-02 07:00:00 14 2 Nordeste 17 Noroeste 0.4 -- -- 88
2020-03-02 06:00:00 14.7 4 Sur 15 Este 0 -- -- 82
2020-03-02 05:00:00 14.7 3 Sudoeste 18 Oeste 0 -- -- 81
2020-03-02 04:00:00 14.5 4 Sudeste 15 Sudoeste 0 -- -- 79
2020-03-02 03:00:00 14.1 3 Nordeste 10 Nordeste 0 -- -- 81
2020-03-02 02:00:00 13.9 3 Nordeste 18 Sur 0 -- -- 81
2020-03-02 01:00:00 12.2 0 Calma 4 Noroeste 0 -- -- 89
2020-03-02 00:00:00 12 2 Nordeste 5 Nordeste 0 -- -- 89
2020-03-01 23:00:00 12 2 Norte 4 Norte 0 -- -- 88
2020-03-01 22:00:00 12 2 Norte 4 Noroeste 0 -- -- 87
2020-03-01 21:00:00 12.4 0 Calma 4 Norte 0 -- -- 85
2020-03-01 20:00:00 13.3 2 Norte 9 Noroeste 0 -- -- 81
2020-03-01 19:00:00 15.3 2 Norte 13 Sudoeste 0 -- -- 71
2020-03-01 18:00:00 16.4 4 Sur 15 Sudoeste 0 -- -- 63
2020-03-01 17:00:00 17.8 3 Nordeste 18 Sudoeste 0 -- -- 54
2020-03-01 16:00:00 18.5 5 Sur 13 Sur 0 -- -- 57
2020-03-01 15:00:00 17.8 3 Sur 18 Sudoeste 0 -- -- 60
2020-03-01 14:00:00 18.4 2 Sudeste 9 Norte 0 -- -- 67
2020-03-01 13:00:00 16.9 3 Sur 14 Sur 0 -- -- 67
2020-03-01 12:00:00 15.3 3 Sudeste 10 Sudoeste 0 -- -- 71
2020-03-01 11:00:00 14.3 0 Calma 10 Sudeste 0 -- -- 81
2020-03-01 10:00:00 12.4 0 Calma 2 Norte 0 -- -- 95
2020-03-01 09:00:00 11.1 0 Calma 4 Noroeste 0 -- -- 98
2020-03-01 08:00:00 9.7 2 Norte 4 Norte 0 -- -- 98
2020-03-01 07:00:00 9.7 2 Noroeste 10 Norte 0 -- -- 97
2020-03-01 06:00:00 10.2 2 Norte 8 Norte 0 -- -- 97
2020-03-01 05:00:00 10.5 3 Norte 4 Norte 0 -- -- 97
2020-03-01 04:00:00 11.1 3 Norte 4 Norte 0 -- -- 96
2020-03-01 03:00:00 12.4 2 Norte 3 Norte 0 -- -- 96
2020-03-01 02:00:00 12.9 0 Calma 3 Norte 0 -- -- 96
2020-03-01 01:00:00 13.3 0 Calma 2 Norte 2.6 -- -- 95
2020-03-01 00:00:00 13.5 0 Calma 3 Noroeste 0.2 -- -- 91
2020-02-29 23:00:00 13.6 0 Calma 3 Nordeste 0 -- -- 87
2020-02-29 22:00:00 13.7 0 Calma 6 Sudeste 0 -- -- 84
2020-02-29 21:00:00 13.7 0 Calma 6 Sudoeste 0 -- -- 85
2020-02-29 20:00:00 13.9 0 Calma 10 Oeste 0 -- -- 81
2020-02-29 19:00:00 14.4 2 Sudeste 9 Nordeste 0 -- -- 78
2020-02-29 18:00:00 15.7 3 Sur 15 Oeste 0 -- -- 69
2020-02-29 17:00:00 17 4 Este 19 Nordeste 0 -- -- 60
2020-02-29 16:00:00 17.7 5 Este 21 Nordeste 0 -- -- 60
2020-02-29 15:00:00 17.9 4 Norte 24 Nordeste 0 -- -- 58
2020-02-29 14:00:00 19.3 8 Norte 24 Nordeste 0 -- -- 58
2020-02-29 13:00:00 19 4 Norte 24 Norte 0 -- -- 57
2020-02-29 12:00:00 16.7 4 Nordeste 19 Norte 0 -- -- 61
2020-02-29 11:00:00 16.6 4 Norte 14 Norte 0 -- -- 63
2020-02-29 10:00:00 13.8 3 Norte 13 Nordeste 0 -- -- 74
2020-02-29 09:00:00 11.4 3 Sudeste 9 Sudeste 0 -- -- 86
2020-02-29 08:00:00 8.4 3 Norte 5 Norte 0 -- -- 83
2020-02-29 07:00:00 8.4 2 Norte 4 Noroeste 0 -- -- 80
2020-02-29 06:00:00 8.4 0 Calma 5 Nordeste 0 -- -- 83
2020-02-29 05:00:00 6.5 0 Calma 3 Norte 0 -- -- 85
2020-02-29 04:00:00 6.8 0 Calma 4 Norte 0 -- -- 83
2020-02-29 03:00:00 7.2 2 Norte 3 Norte 0 -- -- 83
2020-02-29 02:00:00 7.3 0 Calma 3 Norte 0 -- -- 78
2020-02-29 01:00:00 7.9 2 Norte 3 Norte 0 -- -- 77
2020-02-29 00:00:00 8.5 2 Norte 3 Noroeste 0 -- -- 77